createdAt,value
2018-03-27T00:02:19.866Z,76.28
2018-03-27T00:04:48.512Z,76.89
2018-03-27T00:07:17.165Z,77.59
2018-03-27T00:09:45.797Z,77.83
2018-03-27T00:12:14.496Z,77.71
2018-03-27T00:14:43.326Z,77.61
2018-03-27T00:17:13.987Z,77.34
2018-03-27T00:19:43.448Z,77.37
2018-03-27T00:22:12.054Z,77.52
2018-03-27T00:24:43.583Z,77.80
2018-03-27T00:27:11.470Z,78.11
2018-03-27T00:29:57.973Z,78.28
2018-03-27T00:32:44.409Z,78.26
2018-03-27T00:35:31.285Z,78.40
2018-03-27T00:38:17.703Z,78.69
2018-03-27T00:40:45.442Z,79.03
2018-03-27T00:43:14.109Z,78.86
2018-03-27T00:45:42.770Z,78.80
2018-03-27T00:48:11.833Z,77.75
2018-03-27T00:50:41.373Z,76.92
2018-03-27T00:53:10.633Z,76.73
2018-03-27T00:55:39.211Z,77.79
2018-03-27T00:58:07.897Z,78.21
2018-03-27T01:00:36.502Z,78.74
2018-03-27T01:03:05.103Z,78.69
2018-03-27T01:05:33.681Z,78.63
2018-03-27T01:08:02.404Z,79.22
2018-03-27T01:10:31.436Z,79.56
2018-03-27T01:12:59.980Z,79.76
2018-03-27T01:15:28.503Z,79.84
2018-03-27T01:17:57.915Z,79.96
2018-03-27T01:20:28.336Z,80.20
2018-03-27T01:22:57.254Z,80.65
2018-03-27T01:25:25.991Z,80.88
2018-03-27T01:27:55.346Z,81.04
2018-03-27T01:30:23.984Z,81.05
2018-03-27T01:32:52.645Z,81.26
2018-03-27T01:35:21.252Z,81.51
2018-03-27T01:37:49.932Z,81.50
2018-03-27T01:40:19.367Z,81.88
2018-03-27T01:42:47.975Z,82.02
2018-03-27T01:45:17.311Z,81.88
2018-03-27T01:47:45.906Z,82.39
2018-03-27T01:50:15.525Z,82.40
2018-03-27T01:52:45.492Z,82.42
2018-03-27T01:55:15.148Z,82.69
2018-03-27T01:57:43.884Z,82.62
2018-03-27T02:00:12.509Z,82.66
2018-03-27T02:02:41.079Z,83.21
2018-03-27T02:05:09.882Z,83.30
2018-03-27T02:07:38.422Z,83.11
2018-03-27T02:10:07.746Z,82.79
2018-03-27T02:12:41.810Z,82.74
2018-03-27T02:15:16.256Z,82.78
2018-03-27T02:17:50.769Z,82.51
2018-03-27T02:20:24.824Z,82.39
2018-03-27T02:26:01.517Z,82.85
2018-03-27T02:28:30.299Z,83.12
2018-03-27T02:30:59.314Z,83.60
2018-03-27T02:33:28.121Z,83.47
2018-03-27T02:35:57.352Z,83.33
2018-03-27T02:38:28.171Z,83.48
2018-03-27T02:40:56.813Z,83.52
2018-03-27T02:43:25.611Z,83.06
2018-03-27T02:45:54.199Z,82.88
2018-03-27T02:48:22.863Z,82.84
2018-03-27T02:50:51.854Z,82.87
2018-03-27T02:53:20.426Z,83.13
2018-03-27T02:55:49.015Z,83.29
2018-03-27T02:58:17.788Z,83.38
2018-03-27T03:00:46.443Z,83.05
2018-03-27T03:03:15.135Z,82.88
2018-03-27T03:05:44.500Z,82.96
2018-03-27T03:08:14.224Z,83.36
2018-03-27T03:10:43.827Z,83.52
2018-03-27T03:13:12.660Z,83.82
2018-03-27T03:15:41.471Z,84.08
2018-03-27T03:18:10.107Z,84.36
2018-03-27T03:20:38.793Z,84.54
2018-03-27T03:23:07.444Z,84.45
2018-03-27T03:25:35.984Z,84.43
2018-03-27T03:28:04.555Z,84.45
2018-03-27T03:30:34.061Z,84.70
2018-03-27T03:33:02.628Z,84.70
2018-03-27T03:35:31.344Z,84.43
2018-03-27T03:38:00.046Z,84.28
2018-03-27T03:40:28.846Z,84.15
2018-03-27T03:42:58.298Z,83.99
2018-03-27T03:45:27.077Z,84.19
2018-03-27T03:47:55.623Z,84.24
2018-03-27T03:50:24.332Z,84.54
2018-03-27T03:52:52.901Z,84.73
2018-03-27T03:55:21.531Z,84.60
2018-03-27T03:57:50.197Z,84.69
2018-03-27T04:00:18.791Z,84.42
2018-03-27T04:02:48.172Z,84.42
2018-03-27T04:05:16.904Z,84.40
2018-03-27T04:07:46.311Z,84.32
2018-03-27T04:10:14.966Z,84.36
2018-03-27T04:12:44.405Z,84.44
2018-03-27T04:15:13.341Z,84.42
2018-03-27T04:17:42.040Z,84.24
2018-03-27T04:20:10.706Z,84.31
2018-03-27T04:22:39.418Z,84.39
2018-03-27T04:25:08.018Z,84.33
2018-03-27T04:27:37.396Z,84.28
2018-03-27T04:30:06.117Z,84.33
2018-03-27T04:32:34.855Z,84.46
2018-03-27T04:35:03.691Z,84.61
2018-03-27T04:37:32.377Z,84.79
2018-03-27T04:40:01.132Z,84.85
2018-03-27T04:42:30.236Z,84.84
2018-03-27T04:44:59.146Z,84.91
2018-03-27T04:47:28.920Z,85.10
2018-03-27T04:49:58.262Z,85.26
2018-03-27T04:52:27.615Z,85.46
2018-03-27T04:54:56.336Z,85.59
2018-03-27T04:57:25.109Z,85.67
2018-03-27T04:59:54.022Z,85.62
2018-03-27T05:02:23.550Z,85.11
2018-03-27T05:04:52.259Z,84.75
2018-03-27T05:07:21.013Z,84.81
2018-03-27T05:09:49.738Z,84.22
2018-03-27T05:12:18.805Z,83.51
2018-03-27T05:14:48.163Z,83.69
2018-03-27T05:17:17.410Z,83.84
2018-03-27T05:19:46.815Z,83.91
2018-03-27T05:22:15.559Z,83.97
2018-03-27T05:24:44.243Z,84.02
2018-03-27T05:27:13.797Z,84.02
2018-03-27T05:29:42.758Z,83.98
2018-03-27T05:32:11.426Z,83.93
2018-03-27T05:34:40.045Z,83.94
2018-03-27T05:37:08.690Z,83.91
2018-03-27T05:39:37.338Z,83.79
2018-03-27T05:42:06.280Z,83.77
2018-03-27T05:44:35.170Z,83.80
2018-03-27T05:47:04.401Z,83.71
2018-03-27T05:49:33.436Z,83.51
2018-03-27T05:52:02.163Z,83.43
2018-03-27T05:54:30.759Z,83.42
2018-03-27T05:56:59.449Z,83.33
2018-03-27T05:59:28.043Z,83.25
2018-03-27T06:01:56.853Z,82.53
2018-03-27T06:04:25.585Z,82.34
2018-03-27T06:06:54.233Z,81.63
2018-03-27T06:09:23.629Z,80.72
2018-03-27T06:11:52.354Z,79.85
2018-03-27T06:14:22.599Z,73.69
2018-03-27T06:16:53.509Z,69.04
2018-03-27T06:19:22.811Z,65.22
2018-03-27T06:21:51.399Z,63.65
2018-03-27T06:24:20.822Z,61.65
2018-03-27T06:26:49.445Z,59.68
2018-03-27T06:29:18.037Z,58.40
2018-03-27T06:31:46.663Z,56.48
2018-03-27T06:34:15.239Z,56.20
2018-03-27T06:36:43.817Z,55.91
2018-03-27T06:39:13.079Z,54.27
2018-03-27T06:41:41.734Z,52.93
2018-03-27T06:44:10.353Z,51.30
2018-03-27T06:46:39.898Z,50.64
2018-03-27T06:49:09.233Z,50.42
2018-03-27T06:51:38.298Z,48.65
2018-03-27T06:54:06.949Z,48.02
2018-03-27T06:56:35.566Z,48.21
2018-03-27T06:59:04.212Z,48.54
2018-03-27T07:01:32.856Z,49.00
2018-03-27T07:04:01.519Z,48.38
2018-03-27T07:06:30.165Z,46.11
2018-03-27T07:08:59.651Z,45.15
2018-03-27T07:11:29.175Z,45.36
2018-03-27T07:13:58.688Z,45.00
2018-03-27T07:16:27.384Z,46.77
2018-03-27T07:18:57.127Z,48.22
2018-03-27T07:21:26.968Z,50.69
2018-03-27T07:23:55.574Z,50.72
2018-03-27T07:26:24.299Z,48.17
2018-03-27T07:28:53.705Z,47.22
2018-03-27T07:31:22.379Z,47.75
2018-03-27T07:33:51.059Z,44.87
2018-03-27T07:36:20.481Z,42.40
2018-03-27T07:38:49.207Z,40.65
2018-03-27T07:41:17.802Z,39.39
2018-03-27T07:43:46.594Z,38.80
2018-03-27T07:46:15.479Z,37.55
2018-03-27T07:48:45.296Z,37.35
2018-03-27T07:51:14.242Z,36.67
2018-03-27T07:53:43.064Z,36.00
2018-03-27T07:56:12.530Z,35.85
2018-03-27T07:58:41.131Z,35.74
2018-03-27T08:01:09.832Z,35.71
2018-03-27T08:03:38.502Z,34.97
2018-03-27T08:06:07.994Z,34.00
2018-03-27T08:08:37.115Z,33.46
2018-03-27T08:11:05.824Z,32.82
2018-03-27T08:13:34.547Z,32.55
2018-03-27T08:16:04.060Z,32.75
2018-03-27T08:18:33.208Z,32.04
2018-03-27T08:21:03.553Z,30.72
2018-03-27T08:23:33.198Z,30.60
2018-03-27T08:26:01.828Z,29.71
2018-03-27T08:28:30.476Z,29.02
2018-03-27T08:30:59.214Z,28.11
2018-03-27T08:33:28.631Z,27.24
2018-03-27T08:35:57.501Z,26.23
2018-03-27T08:38:26.118Z,25.42
2018-03-27T08:40:54.718Z,24.48
2018-03-27T08:43:23.381Z,24.74
2018-03-27T08:45:51.974Z,25.13
2018-03-27T08:48:21.416Z,25.39
2018-03-27T08:50:50.674Z,24.93
2018-03-27T08:53:19.870Z,24.09
2018-03-27T08:55:48.633Z,23.31
2018-03-27T08:58:18.074Z,22.50
2018-03-27T09:00:46.853Z,22.36
2018-03-27T09:03:16.280Z,21.67
2018-03-27T09:05:44.970Z,21.75
2018-03-27T09:08:13.679Z,20.66
2018-03-27T09:10:42.325Z,20.29
2018-03-27T09:13:10.920Z,19.83
2018-03-27T09:15:40.396Z,19.35
2018-03-27T09:18:10.402Z,18.41
2018-03-27T09:20:39.238Z,18.76
2018-03-27T09:23:08.202Z,18.47
2018-03-27T09:25:37.202Z,17.76
2018-03-27T09:28:05.910Z,17.09
2018-03-27T09:30:35.360Z,16.68
2018-03-27T09:33:04.109Z,16.79
2018-03-27T09:52:27.000Z,23.30
2018-03-27T09:54:55.646Z,22.47
2018-03-27T09:57:25.786Z,23.39
2018-03-27T09:59:54.654Z,23.28
2018-03-27T10:02:23.221Z,23.02
2018-03-27T10:04:51.836Z,23.23
2018-03-27T10:07:20.608Z,24.23
2018-03-27T10:09:49.605Z,23.92
2018-03-27T10:12:29.430Z,24.49
2018-03-27T10:14:58.106Z,24.17
2018-03-27T10:17:28.033Z,21.97
2018-03-27T10:19:57.046Z,21.61
2018-03-27T10:22:26.341Z,22.38
2018-03-27T10:24:55.924Z,22.83
2018-03-27T10:27:24.611Z,22.25
2018-03-27T10:29:53.192Z,22.58
2018-03-27T10:32:21.730Z,23.42
2018-03-27T10:34:50.363Z,24.32
2018-03-27T10:37:18.993Z,24.37
2018-03-27T10:39:48.465Z,24.57
2018-03-27T10:42:17.933Z,24.71
2018-03-27T10:44:46.486Z,24.26
2018-03-27T10:47:15.144Z,24.72
2018-03-27T10:49:43.969Z,24.24
2018-03-27T10:52:14.422Z,22.51
2018-03-27T10:54:43.969Z,21.93
2018-03-27T10:57:12.647Z,19.58
2018-03-27T10:59:42.069Z,18.56
2018-03-27T11:02:10.930Z,16.52
2018-03-27T11:04:39.424Z,15.49
2018-03-27T11:07:08.010Z,13.70
2018-03-27T11:09:36.868Z,13.43
2018-03-27T11:12:06.035Z,13.33
2018-03-27T11:14:34.632Z,14.04
2018-03-27T11:17:04.097Z,14.32
2018-03-27T11:19:33.426Z,14.35
2018-03-27T11:22:02.530Z,13.25
2018-03-27T11:24:31.449Z,11.63
2018-03-27T11:27:00.047Z,11.16
2018-03-27T11:29:28.748Z,10.67
2018-03-27T11:31:57.348Z,11.21
2018-03-27T11:34:26.099Z,11.36
2018-03-27T11:36:55.046Z,11.35
2018-03-27T11:39:23.783Z,12.47
2018-03-27T11:41:52.483Z,11.85
2018-03-27T11:44:21.124Z,11.86
2018-03-27T11:46:49.836Z,11.39
2018-03-27T11:49:18.548Z,10.57
2018-03-27T11:51:47.141Z,10.78
2018-03-27T11:54:17.793Z,10.47
2018-03-27T11:56:46.936Z,10.25
2018-03-27T11:59:15.658Z,10.49
2018-03-27T12:24:12.643Z,11.71
2018-03-27T12:29:57.755Z,12.77
2018-03-27T12:36:02.189Z,13.33
2018-03-27T12:38:31.304Z,14.91
2018-03-27T12:40:59.979Z,14.16
2018-03-27T12:43:28.600Z,12.86
2018-03-27T12:45:57.328Z,12.92
2018-03-27T12:48:26.232Z,12.00
2018-03-27T12:50:55.447Z,11.25
2018-03-27T12:53:25.074Z,11.53
2018-03-27T12:55:53.769Z,11.62
2018-03-27T12:58:22.558Z,12.51
2018-03-27T13:00:51.148Z,14.01
2018-03-27T13:03:20.634Z,14.59
2018-03-27T13:05:49.381Z,15.58
2018-03-27T13:08:19.284Z,14.56
2018-03-27T13:10:48.449Z,13.56
2018-03-27T13:13:19.340Z,12.91
2018-03-27T13:15:48.367Z,12.65
2018-03-27T13:18:18.042Z,12.25
2018-03-27T13:20:47.646Z,12.60
2018-03-27T13:23:16.245Z,13.95
2018-03-27T13:25:44.757Z,14.79
2018-03-27T13:28:13.337Z,15.18
2018-03-27T13:30:42.774Z,15.27
2018-03-27T13:33:11.675Z,16.58
2018-03-27T13:35:40.543Z,17.54
2018-03-27T13:38:09.453Z,17.02
2018-03-27T13:40:38.079Z,17.47
2018-03-27T13:43:06.859Z,18.01
2018-03-27T13:45:35.492Z,18.75
2018-03-27T13:48:04.274Z,18.43
2018-03-27T13:50:34.000Z,18.48
2018-03-27T13:53:03.611Z,17.82
2018-03-27T13:55:32.333Z,17.67
2018-03-27T13:58:01.867Z,18.00
2018-03-27T14:00:31.759Z,18.15
2018-03-27T14:03:01.106Z,18.25
2018-03-27T14:05:31.168Z,17.41
2018-03-27T14:07:59.914Z,15.84
2018-03-27T14:10:29.591Z,16.35
2018-03-27T14:12:58.232Z,16.52
2018-03-27T14:15:28.087Z,16.66
2018-03-27T14:17:57.515Z,17.29
2018-03-27T14:20:27.122Z,17.50
2018-03-27T14:22:55.966Z,17.91
2018-03-27T14:25:24.992Z,18.26
2018-03-27T14:27:54.032Z,17.90
2018-03-27T14:30:22.992Z,18.41
2018-03-27T14:32:52.450Z,18.44
2018-03-27T14:35:21.381Z,18.54
2018-03-27T14:37:50.173Z,17.64
2018-03-27T14:40:19.786Z,16.86
2018-03-27T14:42:48.482Z,15.71
2018-03-27T14:45:17.612Z,14.83
2018-03-27T14:47:47.019Z,15.03
2018-03-27T14:50:17.141Z,15.75
2018-03-27T14:52:46.015Z,16.74
2018-03-27T14:55:16.079Z,17.61
2018-03-27T14:57:44.988Z,17.65
2018-03-27T15:00:14.167Z,18.44
2018-03-27T15:02:43.711Z,19.86
2018-03-27T15:05:13.143Z,20.53
2018-03-27T15:07:42.911Z,20.92
2018-03-27T15:10:12.183Z,21.03
2018-03-27T15:12:42.450Z,21.62
2018-03-27T15:15:11.934Z,20.62
2018-03-27T15:17:40.992Z,22.02
2018-03-27T15:20:10.314Z,20.56
2018-03-27T15:22:39.040Z,20.93
2018-03-27T15:25:08.748Z,20.44
2018-03-27T15:27:37.402Z,19.12
2018-03-27T15:30:06.230Z,20.08
2018-03-27T15:32:36.499Z,19.32
2018-03-27T15:35:06.123Z,20.33
2018-03-27T15:37:34.887Z,20.79
2018-03-27T15:40:03.894Z,20.36
2018-03-27T15:42:32.498Z,20.79
2018-03-27T15:45:01.500Z,22.28
2018-03-27T15:47:31.716Z,22.68
2018-03-27T15:50:00.824Z,22.47
2018-03-27T15:52:35.693Z,23.94
2018-03-27T15:55:05.478Z,24.83
2018-03-27T15:57:35.044Z,25.81
2018-03-27T16:00:04.194Z,26.76
2018-03-27T16:02:33.855Z,27.22
2018-03-27T16:05:03.353Z,27.63
2018-03-27T16:07:32.307Z,26.81
2018-03-27T16:10:02.020Z,26.76
2018-03-27T16:12:32.078Z,26.17
2018-03-27T16:15:01.066Z,25.36
2018-03-27T16:17:30.819Z,24.46
2018-03-27T16:20:00.432Z,23.99
2018-03-27T16:22:29.590Z,24.59
2018-03-27T16:24:58.357Z,24.21
2018-03-27T16:27:27.901Z,25.08
2018-03-27T16:29:57.938Z,25.13
2018-03-27T16:32:27.633Z,25.24
2018-03-27T16:34:56.495Z,25.92
2018-03-27T16:37:25.974Z,26.38
2018-03-27T16:39:55.929Z,26.89
2018-03-27T16:42:25.644Z,27.11
2018-03-27T16:44:54.551Z,27.49
2018-03-27T16:47:23.454Z,27.97
2018-03-27T16:49:52.458Z,28.38
2018-03-27T16:52:21.657Z,29.31
2018-03-27T16:54:50.752Z,31.08
2018-03-27T16:57:19.834Z,31.44
2018-03-27T16:59:49.208Z,31.76
2018-03-27T17:02:18.213Z,31.85
2018-03-27T17:04:48.050Z,32.02
2018-03-27T17:07:18.262Z,32.51
2018-03-27T17:09:48.306Z,33.14
2018-03-27T17:12:17.337Z,35.04
2018-03-27T17:14:46.734Z,33.61
2018-03-27T17:17:16.555Z,33.82
2018-03-27T17:19:47.115Z,33.43
2018-03-27T17:22:16.937Z,33.47
2018-03-27T17:24:45.926Z,34.10
2018-03-27T17:27:16.503Z,34.40
2018-03-27T17:29:46.778Z,33.51
2018-03-27T17:32:16.785Z,33.34
2018-03-27T17:34:46.738Z,33.26
2018-03-27T17:37:15.926Z,33.59
2018-03-27T17:39:44.862Z,33.49
2018-03-27T17:42:13.864Z,35.00
2018-03-27T17:44:42.744Z,35.89
2018-03-27T17:47:11.661Z,36.50
2018-03-27T17:49:40.685Z,37.21
2018-03-27T17:52:09.797Z,37.46
2018-03-27T17:54:38.928Z,37.70
2018-03-27T17:57:08.054Z,39.03
2018-03-27T17:59:37.569Z,39.28
2018-03-27T18:02:08.330Z,39.97
2018-03-27T18:04:39.193Z,40.62
2018-03-27T18:07:10.553Z,40.56
2018-03-27T18:09:41.096Z,41.63
2018-03-27T18:12:10.980Z,40.64
2018-03-27T18:14:40.470Z,41.36
2018-03-27T18:17:10.102Z,43.55
2018-03-27T18:19:39.892Z,42.68
2018-03-27T18:22:09.176Z,42.36
2018-03-27T18:24:40.938Z,42.88
2018-03-27T18:27:10.984Z,43.44
2018-03-27T18:29:40.081Z,43.12
2018-03-27T18:32:11.452Z,43.17
2018-03-27T18:34:42.276Z,43.29
2018-03-27T18:37:12.558Z,43.31
2018-03-27T18:39:42.319Z,43.66
2018-03-27T18:42:12.207Z,43.46
2018-03-27T18:44:43.260Z,44.53
2018-03-27T18:47:14.996Z,43.80
2018-03-27T18:49:44.517Z,44.23
2018-03-27T18:52:14.117Z,45.02
2018-03-27T18:54:43.821Z,44.72
2018-03-27T18:57:15.360Z,45.06
2018-03-27T19:00:09.660Z,45.22
2018-03-27T19:02:39.842Z,45.14
2018-03-27T19:05:09.840Z,44.99
2018-03-27T19:07:41.149Z,45.45
2018-03-27T19:10:11.111Z,45.51
2018-03-27T19:12:41.781Z,45.71
2018-03-27T19:15:11.864Z,45.79
2018-03-27T19:17:41.924Z,45.85
2018-03-27T19:20:13.394Z,45.85
2018-03-27T19:22:56.524Z,46.56
2018-03-27T19:25:27.098Z,46.54
2018-03-27T19:27:56.890Z,46.82
2018-03-27T19:30:30.623Z,47.07
2018-03-27T19:33:00.046Z,47.22
2018-03-27T19:35:29.460Z,48.25
2018-03-27T19:37:59.495Z,49.00
2018-03-27T19:40:30.753Z,48.50
2018-03-27T19:43:00.508Z,48.62
2018-03-27T19:45:33.508Z,48.22
2018-03-27T19:48:06.897Z,48.03
2018-03-27T19:50:37.103Z,47.15
2018-03-27T19:53:07.221Z,47.37
2018-03-27T19:55:37.281Z,46.91
2018-03-27T19:58:07.281Z,46.75
2018-03-27T20:00:36.646Z,47.39
2018-03-27T20:03:06.671Z,47.17
2018-03-27T20:05:37.654Z,47.27
2018-03-27T20:08:08.676Z,48.08
2018-03-27T20:10:39.678Z,49.35
2018-03-27T20:13:09.873Z,50.01
2018-03-27T20:15:42.076Z,49.92
2018-03-27T20:18:11.095Z,50.50
2018-03-27T20:20:41.764Z,49.48
2018-03-27T20:23:11.572Z,48.90
2018-03-27T20:25:40.674Z,48.16
2018-03-27T20:28:12.657Z,48.66
2018-03-27T20:30:43.068Z,48.84
2018-03-27T20:33:14.872Z,46.69
2018-03-27T20:35:44.199Z,46.35
2018-03-27T20:38:13.637Z,46.91
2018-03-27T20:40:43.994Z,47.38
2018-03-27T20:43:14.791Z,47.48
2018-03-27T20:45:44.197Z,48.10
2018-03-27T20:48:13.823Z,50.25
2018-03-27T20:50:43.533Z,51.73
2018-03-27T20:53:14.311Z,51.99
2018-03-27T20:55:44.488Z,52.51
2018-03-27T20:58:13.820Z,52.96
2018-03-27T21:00:42.914Z,52.91
2018-03-27T21:03:11.978Z,52.90
2018-03-27T21:05:41.426Z,52.76
2018-03-27T21:08:11.434Z,52.43
2018-03-27T21:10:42.540Z,53.22
2018-03-27T21:13:12.703Z,53.20
2018-03-27T21:15:42.863Z,53.29
2018-03-27T21:18:13.636Z,53.35
2018-03-27T21:20:43.023Z,53.37
2018-03-27T21:23:12.472Z,53.29
2018-03-27T21:25:42.802Z,53.73
2018-03-27T21:28:12.115Z,53.46
2018-03-27T21:30:41.657Z,53.23
2018-03-27T21:33:11.190Z,53.32
2018-03-27T21:35:39.913Z,53.69
2018-03-27T21:38:09.776Z,53.61
2018-03-27T21:40:38.574Z,53.95
2018-03-27T21:43:08.532Z,54.45
2018-03-27T21:45:37.926Z,54.72
2018-03-27T21:48:07.245Z,55.03
2018-03-27T21:50:36.083Z,55.71
2018-03-27T21:53:05.420Z,55.41
2018-03-27T21:55:34.508Z,55.62
2018-03-27T21:58:03.514Z,55.40
2018-03-27T22:00:32.453Z,55.30
2018-03-27T22:03:01.149Z,55.59
2018-03-27T22:05:30.249Z,55.71
2018-03-27T22:07:59.694Z,56.21
2018-03-27T22:10:28.480Z,56.45
2018-03-27T22:12:57.729Z,56.50
2018-03-27T22:15:27.367Z,56.96
2018-03-27T22:17:57.073Z,57.44
2018-03-27T22:20:26.596Z,57.30
2018-03-27T22:22:56.053Z,57.86
2018-03-27T22:25:25.141Z,58.83
2018-03-27T22:27:54.062Z,59.53
2018-03-27T22:30:22.748Z,60.11
2018-03-27T22:32:51.763Z,61.20
2018-03-27T22:35:20.379Z,62.57
2018-03-27T22:37:49.192Z,63.43
2018-03-27T22:40:18.174Z,63.06
2018-03-27T22:42:47.133Z,63.33
2018-03-27T22:45:17.270Z,62.98
2018-03-27T22:47:47.103Z,63.42
2018-03-27T22:50:15.716Z,63.95
2018-03-27T22:52:44.723Z,65.41
2018-03-27T22:55:13.438Z,65.64
2018-03-27T22:57:42.295Z,66.10
2018-03-27T23:00:12.046Z,65.99
2018-03-27T23:02:41.214Z,65.42
2018-03-27T23:05:10.016Z,66.45
2018-03-27T23:07:38.831Z,66.29
2018-03-27T23:10:07.371Z,66.93
2018-03-27T23:12:36.320Z,67.69
2018-03-27T23:15:05.874Z,70.05
2018-03-27T23:17:35.938Z,68.04
2018-03-27T23:20:05.735Z,68.46
2018-03-27T23:22:34.548Z,68.89
2018-03-27T23:25:03.160Z,69.54
2018-03-27T23:27:32.668Z,70.52
2018-03-27T23:30:02.607Z,70.71
2018-03-27T23:32:32.119Z,69.73
2018-03-27T23:35:01.891Z,70.29
2018-03-27T23:37:30.628Z,71.12
2018-03-27T23:40:00.512Z,70.48
2018-03-27T23:42:29.810Z,71.91
2018-03-27T23:44:59.212Z,73.36
2018-03-27T23:47:28.822Z,73.32
2018-03-27T23:49:59.207Z,72.42
2018-03-27T23:52:28.447Z,72.78
2018-03-27T23:54:57.145Z,74.16
2018-03-27T23:57:25.815Z,74.23
2018-03-27T23:59:56.119Z,75.59
